Terminal Aerodrome Forecast
Issued by NWS Jackson, MS

Home | Current Version | Previous Version | Text Only | Print | Product List | Glossary On
Versions: 1 2 3 4 5 6 7 8 9 10 11 12 13 14 15 16 17 18 19 20 21
517
FTUS44 KJAN 030808 AAA
TAFHBG
TAF AMD
KHBG 030808Z 0308/0406 00000KT 6SM BR BKN002 OVC010
     FM031000 VRB03KT 5SM BR OVC003
     FM031100 VRB03KT 3SM BR OVC008
     FM031300 34004KT P6SM OVC015
     FM031800 33006KT P6SM SCT015 OVC025
     FM032200 33006KT P6SM OVC100=

USA.gov is the U.S. government's official web portal to all federal, state and local government web resources and services.